Data for 12/05/2005

Time Sea-Level Adjusted Pressure Absolute Pressure Temperature Relative Humidity Dew Point   
(mb) (inHg) (mb) (inHg) (C) (F) (%) (C) (F)
00:05 1021 30.15 850 25.1 -6.4 20.5 54 -14.3 6.2
00:10 1021 30.15 850 25.1 -6.4 20.5 55 -13.9 6.9
00:15 1021 30.15 850 25.1 -6.4 20.4 55 -14 6.8
00:20 1021 30.15 850 25.1 -6.5 20.3 56 -13.9 7
00:25 1021 30.15 850 25.1 -6.7 20 57 -13.8 7.2
00:30 1021 30.15 850 25.1 -6.6 20 58 -13.7 7.4
00:35 1021 30.15 850 25.1 -6.7 19.9 58 -13.8 7.2
00:40 1021 30.15 850 25.1 -6.7 19.9 58 -13.6 7.4
00:45 1021 30.15 850 25.1 -6.7 19.9 59 -13.6 7.6
00:50 1021 30.15 850 25.1 -6.8 19.7 59 -13.5 7.7
00:55 1021 30.15 850 25.1 -6.8 19.8 58 -13.7 7.3
01:00 1021 30.15 850 25.1 -6.8 19.7 57 -14.1 6.6
01:05 1021 30.15 850 25.1 -6.9 19.7 58 -13.9 7
01:10 1021 30.15 850 25.1 -6.8 19.7 57 -13.9 7
01:15 1021 30.15 850 25.1 -6.8 19.8 56 -14.1 6.6
01:20 1021 30.15 850 25.1 -6.5 20.3 54 -14.3 6.2
01:25 1021 30.15 850 25.1 -6.2 20.9 53 -14.3 6.3
01:30 1021 30.15 850 25.1 -5.8 21.5 54 -13.6 7.5
01:35 1020 30.12 850 25.1 -5.6 21.9 55 -13.3 8.1
01:40 1020 30.12 850 25.1 -5.5 22.1 57 -12.6 9.3
01:45 1020 30.12 850 25.1 -5.4 22.3 57 -12.7 9.1
01:50 1020 30.12 850 25.1 -5.3 22.4 56 -12.7 9.1
01:55 1020 30.12 849 25.07 -5.4 22.3 56 -12.8 9
02:00 1020 30.12 850 25.1 -5.4 22.4 56 -12.9 8.8
02:05 1020 30.12 849 25.07 -5.3 22.4 56 -12.9 8.8
02:10 1020 30.12 849 25.07 -5.1 22.8 55 -12.9 8.8
02:15 1020 30.12 849 25.07 -5 23 54 -13 8.7
02:20 1020 30.12 849 25.07 -4.9 23.2 53 -13.1 8.5
02:25 1020 30.12 849 25.07 -4.9 23.3 54 -12.7 9.2
02:30 1020 30.12 849 25.07 -4.9 23.2 55 -12.5 9.4
02:35 1020 30.12 849 25.07 -4.8 23.3 55 -12.7 9.2
02:40 1020 30.12 849 25.07 -4.8 23.3 54 -12.8 9
02:45 1020 30.12 849 25.07 -4.8 23.3 53 -12.9 8.7
02:50 1020 30.12 849 25.07 -4.8 23.4 54 -12.8 9
02:55 1020 30.12 849 25.07 -4.8 23.3 54 -12.8 8.9
03:00 1020 30.12 849 25.07 -4.8 23.4 53 -13.1 8.5
03:05 1020 30.12 849 25.07 -4.7 23.5 52 -13.1 8.5
03:10 1020 30.12 849 25.07 -4.8 23.4 53 -13 8.5
03:15 1020 30.12 849 25.07 -4.8 23.4 53 -13 8.7
03:20 1020 30.12 849 25.07 -4.7 23.6 53 -12.8 8.9
03:25 1020 30.12 849 25.07 -4.7 23.5 53 -12.9 8.7
03:30 1020 30.12 849 25.07 -4.7 23.5 53 -12.8 8.9
03:35 1020 30.12 849 25.07 -4.7 23.5 53 -12.9 8.9
03:40 1020 30.12 849 25.07 -4.8 23.4 54 -12.8 8.9
03:45 1020 30.12 849 25.07 -4.8 23.4 54 -12.7 9.1
03:50 1020 30.12 849 25.07 -4.7 23.5 53 -12.9 8.8
03:55 1020 30.12 849 25.07 -4.7 23.6 53 -12.8 9
04:00 1020 30.12 849 25.07 -4.6 23.7 54 -12.6 9.4
04:05 1020 30.12 849 25.07 -4.7 23.6 58 -11.7 11
04:10 1020 30.12 849 25.07 -4.8 23.4 60 -11.4 11.4
04:15 1020 30.12 849 25.07 -4.9 23.1 56 -12.3 9.8
04:20 1020 30.12 849 25.07 -5.2 22.6 58 -12.3 9.8
04:25 1020 30.12 849 25.07 -5.4 22.3 57 -12.6 9.3
04:30 1020 30.12 849 25.07 -5.4 22.3 58 -12.5 9.4
04:35 1020 30.12 849 25.07 -5.5 22.1 59 -12.4 9.7
04:40 1020 30.12 849 25.07 -5.4 22.4 59 -12.2 10
04:45 1020 30.12 849 25.07 -5.3 22.4 60 -11.9 10.7
04:50 1020 30.12 849 25.07 -5.2 22.6 59 -12.1 10.2
04:55 1020 30.12 849 25.07 -4.9 23.3 56 -12.4 9.7
05:00 1020 30.12 849 25.07 -4.6 23.6 54 -12.5 9.5
05:05 1020 30.12 849 25.07 -4.6 23.8 54 -12.5 9.5
05:10 1020 30.12 849 25.07 -4.5 23.8 53 -12.6 9.2
05:15 1019 30.09 849 25.07 -4.5 24 53 -12.6 9.4
05:20 1019 30.09 849 25.07 -4.5 24 52 -13 8.6
05:25 1019 30.09 849 25.07 -4.4 24.1 52 -12.8 8.9
05:30 1019 30.09 849 25.07 -4.4 24.2 52 -12.8 9
05:35 1019 30.09 849 25.07 -4.4 24 53 -12.6 9.3
05:40 1019 30.09 849 25.07 -4.5 24 53 -12.6 9.2
05:45 1019 30.09 848 25.04 -4.4 24.1 55 -12.2 10
05:50 1019 30.09 848 25.04 -4.3 24.3 51 -12.9 8.7
05:55 1019 30.09 848 25.04 -4.2 24.4 51 -12.8 8.9
06:00 1019 30.09 848 25.04 -4.2 24.4 53 -12.4 9.7
06:05 1019 30.09 848 25.04 -4.3 24.3 54 -12.2 10
06:10 1019 30.09 848 25.04 -4.3 24.2 52 -12.7 9.1
06:15 1019 30.09 848 25.04 -4.2 24.4 53 -12.3 9.8
06:20 1019 30.09 848 25.04 -4.2 24.5 54 -12.1 10.2
06:25 1019 30.09 848 25.04 -4.3 24.3 55 -12.1 10.3
06:30 1019 30.09 848 25.04 -4.3 24.2 55 -12 10.4
06:35 1019 30.09 848 25.04 -4.3 24.3 55 -11.9 10.6
06:40 1019 30.09 848 25.04 -4.3 24.2 57 -11.7 10.9
06:45 1019 30.09 848 25.04 -4.4 24.1 57 -11.7 10.9
06:50 1019 30.09 848 25.04 -4.2 24.4 56 -11.7 11
06:55 1019 30.09 848 25.04 -4.2 24.4 57 -11.6 11.1
07:00 1019 30.09 848 25.04 -4.3 24.2 57 -11.6 11.2
07:05 1018 30.06 848 25.04 -4.4 24.1 57 -11.7 10.9
07:10 1018 30.06 848 25.04 -4.4 24.2 57 -11.7 11
07:15 1018 30.06 848 25.04 -4.3 24.3 57 -11.5 11.3
07:20 1018 30.06 848 25.04 -4.3 24.3 57 -11.6 11.2
07:25 1018 30.06 847 25.01 -4.3 24.3 58 -11.4 11.4
07:30 1018 30.06 847 25.01 -4.2 24.4 56 -11.8 10.8
07:35 1018 30.06 847 25.01 -4.2 24.5 54 -12.1 10.2
07:40 1018 30.06 847 25.01 -4.3 24.2 56 -11.8 10.8
07:45 1018 30.06 847 25.01 -4.3 24.2 56 -11.9 10.7
07:50 1018 30.06 847 25.01 -4.3 24.3 56 -11.7 10.9
07:55 1018 30.06 847 25.01 -4.2 24.4 54 -12.2 10.1
08:00 1018 30.06 847 25.01 -4.2 24.4 55 -12 10.5
08:05 1018 30.06 847 25.01 -4.2 24.4 55 -11.9 10.5
08:10 1018 30.06 847 25.01 -4.2 24.4 56 -11.7 10.9
08:15 1018 30.06 847 25.01 -4.2 24.5 56 -11.8 10.8
08:20 1018 30.06 847 25.01 -4.2 24.5 57 -11.4 11.4
08:25 1018 30.06 847 25.01 -4.3 24.3 56 -11.7 10.9
08:30 1018 30.06 847 25.01 -4.3 24.3 58 -11.5 11.4
08:35 1018 30.06 847 25.01 -4.1 24.7 55 -11.9 10.6
08:40 1018 30.06 847 25.01 -4 24.7 56 -11.6 11.2
08:45 1018 30.06 847 25.01 -4.1 24.7 57 -11.4 11.4
08:50 1018 30.06 847 25.01 -3.9 24.9 55 -11.8 10.8
08:55 1018 30.06 847 25.01 -3.8 25.2 54 -11.8 10.8
09:00 1018 30.06 847 25.01 -3.7 25.4 55 -11.6 11.2
09:05 1018 30.06 847 25.01 -3.6 25.5 54 -11.6 11.1
09:10 1018 30.06 847 25.01 -3.5 25.7 55 -11.4 11.5
09:15 1018 30.06 847 25.01 -3.5 25.6 55 -11.4 11.4
09:20 1018 30.06 847 25.01 -3.5 25.7 55 -11.4 11.5
09:25 1018 30.06 847 25.01 -3.5 25.8 54 -11.4 11.5
09:30 1018 30.06 847 25.01 -3.4 26 53 -11.5 11.3
09:35 1018 30.06 847 25.01 -3.2 26.2 54 -11.2 11.8
09:40 1018 30.06 847 25.01 -3.3 26.1 55 -11 12.1
09:45 1018 30.06 847 25.01 -3.2 26.2 53 -11.4 11.4
09:50 1018 30.06 847 25.01 -3.2 26.2 56 -10.9 12.4
09:55 1018 30.06 847 25.01 -3.1 26.5 56 -10.6 12.9
10:00 1018 30.06 847 25.01 -2.8 26.9 57 -10.2 13.7
10:05 1018 30.06 847 25.01 -2.5 27.5 54 -10.6 13
10:10 1018 30.06 847 25.01 -2.5 27.5 54 -10.5 13.1
10:15 1018 30.06 847 25.01 -2.2 28 55 -10.1 13.8
10:20 1018 30.06 847 25.01 -2.1 28.2 54 -10.2 13.6
10:25 1018 30.06 847 25.01 -2.1 28.2 53 -10.4 13.3
10:30 1018 30.06 847 25.01 -2 28.3 56 -9.8 14.4
10:35 1018 30.06 847 25.01 -2.2 28 57 -9.7 14.6
10:40 1018 30.06 847 25.01 -2.2 28 58 -9.4 15.1
10:45 1017 30.03 847 25.01 -2.5 27.6 61 -8.9 16
10:50 1017 30.03 847 25.01 -2.6 27.4 60 -9.3 15.2
10:55 1017 30.03 847 25.01 -2.5 27.6 61 -9 15.9
11:00 1017 30.03 847 25.01 -2.4 27.6 61 -8.9 16
11:05 1017 30.03 847 25.01 -2.3 27.9 61 -8.9 16.1
11:10 1017 30.03 846 24.98 -2.3 27.9 60 -8.9 15.9
11:15 1017 30.03 846 24.98 -2.4 27.7 61 -9 15.8
11:20 1017 30.03 846 24.98 -2.3 27.8 62 -8.6 16.5
11:25 1017 30.03 846 24.98 -2.5 27.6 62 -8.8 16.1
11:30 1017 30.03 847 25.01 -2.4 27.7 63 -8.4 16.9
11:35 1017 30.03 847 25.01 -2.5 27.5 66 -7.9 17.7
11:40 1017 30.03 847 25.01 -2.8 27 71 -7.3 18.9
11:45 1017 30.03 847 25.01 -3.3 26.1 79 -6.4 20.6
11:50 1017 30.03 847 25.01 -3.5 25.8 85 -5.7 21.8
11:55 1017 30.03 847 25.01 -3.7 25.4 87 -5.6 22
12:00 1017 30.03 847 25.01 -3.6 25.5 87 -5.5 22.1
12:05 1017 30.03 846 24.98 -3.7 25.3 87 -5.5 22
12:10 1017 30.03 846 24.98 -3.6 25.5 86 -5.6 21.9
12:15 1017 30.03 846 24.98 -3.7 25.4 87 -5.5 22.1
12:20 1017 30.03 846 24.98 -3.8 25.1 89 -5.3 22.4
12:25 1017 30.03 846 24.98 -3.8 25.1 90 -5.2 22.6
12:30 1017 30.03 846 24.98 -4.3 24.3 91 -5.5 22
12:35 1017 30.03 846 24.98 -4.7 23.6 93 -5.6 21.9
12:40 1017 30.03 846 24.98 -4.5 24 93 -5.4 22.2
12:45 1017 30.03 846 24.98 -4.5 23.8 93 -5.6 22
12:50 1017 30.03 846 24.98 -4.7 23.6 93 -5.6 22
12:55 1017 30.03 846 24.98 -4.5 23.8 94 -5.4 22.3
13:00 1017 30.03 846 24.98 -4.5 23.9 93 -5.5 22.2
13:05 1016 30 846 24.98 -4.5 24 92 -5.5 22.1
13:10 1016 30 846 24.98 -4.4 24.1 93 -5.4 22.3
13:15 1016 30 846 24.98 -4.3 24.3 93 -5.3 22.5
13:20 1016 30 846 24.98 -4.2 24.4 93 -5.3 22.5
13:25 1016 30 845 24.95 -4.3 24.3 92 -5.3 22.4
13:30 1016 30 845 24.95 -4.3 24.3 91 -5.5 22.1
13:35 1016 30 845 24.95 -4.3 24.2 92 -5.5 22.1
13:40 1016 30 845 24.95 -4.3 24.2 92 -5.5 22.1
13:45 1016 30 845 24.95 -4.3 24.3 91 -5.5 22.1
13:50 1016 30 845 24.95 -4.1 24.6 91 -5.4 22.3
13:55 1016 30 845 24.95 -4.1 24.6 91 -5.4 22.3
14:00 1016 30 845 24.95 -4.2 24.5 90 -5.6 22
14:05 1016 30 845 24.95 -4.3 24.3 91 -5.5 22.1
14:10 1016 30 845 24.95 -4.3 24.3 90 -5.7 21.8
14:15 1016 30 845 24.95 -4.4 24 92 -5.5 22.1
14:20 1016 30 845 24.95 -4.3 24.3 90 -5.6 21.8
14:25 1016 30 845 24.95 -4.4 24.2 91 -5.7 21.8
14:30 1016 30 845 24.95 -4.3 24.3 90 -5.7 21.7
14:35 1016 30 845 24.95 -4.4 24 91 -5.6 21.9
14:40 1016 30 845 24.95 -4.6 23.8 92 -5.7 21.8
14:45 1015 29.97 845 24.95 -4.5 23.9 92 -5.6 22
14:50 1015 29.97 845 24.95 -4.4 24 92 -5.6 22
14:55 1016 30 845 24.95 -4.6 23.8 92 -5.7 21.8
15:00 1016 30 845 24.95 -4.6 23.7 91 -5.9 21.5
15:05 1016 30 845 24.95 -4.5 23.9 92 -5.7 21.8
15:10 1015 29.97 845 24.95 -4.5 24 91 -5.7 21.8
15:15 1015 29.97 845 24.95 -4.5 23.9 91 -5.7 21.7
15:20 1015 29.97 845 24.95 -4.5 23.9 91 -5.7 21.8
15:25 1015 29.97 845 24.95 -4.4 24.1 91 -5.6 21.8
15:30 1015 29.97 845 24.95 -4.4 24.1 90 -5.8 21.6
15:35 1015 29.97 845 24.95 -4.5 23.9 91 -5.8 21.6
15:40 1015 29.97 845 24.95 -4.4 24 91 -5.7 21.8
15:45 1015 29.97 845 24.95 -4.5 24 90 -5.8 21.5
15:50 1015 29.97 845 24.95 -4.6 23.6 91 -5.8 21.5
15:55 1015 29.97 845 24.95 -4.6 23.7 92 -5.7 21.8
16:00 1015 29.97 845 24.95 -4.7 23.5 93 -5.8 21.6
16:05 1015 29.97 845 24.95 -4.8 23.4 92 -5.8 21.5
16:10 1015 29.97 845 24.95 -4.7 23.5 92 -5.8 21.6
16:15 1015 29.97 845 24.95 -4.7 23.5 92 -5.8 21.6
16:20 1015 29.97 845 24.95 -4.6 23.6 92 -5.8 21.6
16:25 1015 29.97 845 24.95 -4.6 23.7 91 -5.9 21.4
16:30 1015 29.97 845 24.95 -4.6 23.7 89 -6.1 21
16:35 1015 29.97 845 24.95 -4.7 23.5 90 -6 21.1
16:40 1015 29.97 845 24.95 -4.8 23.4 91 -6.1 21.1
16:45 1015 29.97 845 24.95 -4.6 23.8 89 -6.2 20.9
16:50 1015 29.97 845 24.95 -4.4 24.1 88 -6.1 21.1
16:55 1015 29.97 845 24.95 -4.3 24.3 88 -6 21.2
17:00 1015 29.97 844 24.92 -4.3 24.3 87 -6.1 21.1
17:05 1015 29.97 844 24.92 -4.2 24.5 86 -6.1 21
17:10 1015 29.97 844 24.92 -4.2 24.5 87 -6.1 21.1
17:15 1015 29.97 844 24.92 -4.2 24.5 86 -6.2 20.8
17:20 1015 29.97 844 24.92 -4.5 23.9 87 -6.4 20.5
17:25 1015 29.97 844 24.92 -4.6 23.7 86 -6.6 20.2
17:30 1015 29.97 844 24.92 -4.6 23.7 86 -6.7 20
17:35 1015 29.97 844 24.92 -4.4 24.1 85 -6.5 20.3
17:40 1015 29.97 844 24.92 -4.2 24.5 82 -6.8 19.7
17:45 1015 29.97 844 24.92 -4.2 24.5 82 -6.8 19.7
17:50 1015 29.97 844 24.92 -4.2 24.4 81 -7 19.5
17:55 1015 29.97 844 24.92 -4.5 24 81 -7.2 19.1
18:00 1015 29.97 844 24.92 -4.4 24.1 82 -7.1 19.2
18:05 1015 29.97 844 24.92 -4.4 24.2 80 -7.2 19
18:10 1015 29.97 844 24.92 -4.3 24.2 80 -7.2 19
18:15 1015 29.97 844 24.92 -4.1 24.7 78 -7.3 18.9
18:20 1015 29.97 844 24.92 -3.8 25.2 76 -7.4 18.7
18:25 1015 29.97 844 24.92 -3.6 25.5 78 -7 19.4
18:30 1015 29.97 844 24.92 -3.5 25.6 77 -7.1 19.2
18:35 1015 29.97 844 24.92 -3.5 25.6 76 -7.1 19.2
18:40 1015 29.97 844 24.92 -3.5 25.7 78 -6.8 19.8
18:45 1015 29.97 844 24.92 -3.6 25.5 77 -7 19.4
18:50 1015 29.97 844 24.92 -3.6 25.5 77 -7.1 19.3
18:55 1015 29.97 844 24.92 -3.5 25.7 77 -7 19.4
19:00 1015 29.97 844 24.92 -3.4 25.8 76 -7.1 19.3
19:05 1015 29.97 844 24.92 -3.6 25.5 78 -6.9 19.5
19:10 1014 29.94 844 24.92 -3.7 25.3 79 -6.9 19.6
19:15 1014 29.94 844 24.92 -3.7 25.3 79 -6.9 19.6
19:20 1014 29.94 844 24.92 -3.6 25.5 76 -7.2 19.1
19:25 1014 29.94 844 24.92 -3.5 25.7 76 -7.2 19.1
19:30 1014 29.94 843 24.89 -3.5 25.7 76 -7.2 19.1
19:35 1014 29.94 843 24.89 -3.7 25.4 77 -7.2 19.1
19:40 1014 29.94 844 24.92 -3.8 25.2 77 -7.2 19.1
19:45 1015 29.97 844 24.92 -3.9 25 78 -7.1 19.1
19:50 1014 29.94 844 24.92 -4.1 24.5 80 -7.1 19.1
19:55 1015 29.97 844 24.92 -4.3 24.3 80 -7.2 19.1
20:00 1014 29.94 844 24.92 -4.4 24.1 82 -7 19.4
20:05 1015 29.97 844 24.92 -5.2 22.7 84 -7.5 18.5
20:10 1015 29.97 844 24.92 -6.6 20.2 86 -8.5 16.7
20:15 1015 29.97 844 24.92 -7.7 18.2 89 -9.2 15.4
20:20 1015 29.97 844 24.92 -8.2 17.3 89 -9.7 14.5
20:25 1015 29.97 844 24.92 -8.6 16.6 90 -10 14
20:30 1015 29.97 844 24.92 -8.9 15.9 90 -10.3 13.5
20:35 1015 29.97 844 24.92 -9.3 15.3 90 -10.6 12.9
20:40 1015 29.97 845 24.95 -9.5 14.9 90 -10.9 12.3
20:45 1016 30 845 24.95 -9.9 14.1 90 -11.3 11.6
20:50 1016 30 845 24.95 -10.3 13.5 89 -11.7 10.9
20:55 1016 30 845 24.95 -10.5 13.2 89 -11.9 10.6
21:00 1016 30 846 24.98 -10.6 12.9 90 -11.9 10.6
21:05 1016 30 846 24.98 -10.7 12.7 89 -12.2 10.1
21:10 1017 30.03 846 24.98 -11 12.2 89 -12.5 9.5
21:15 1017 30.03 846 24.98 -11.2 11.9 89 -12.6 9.3
21:20 1017 30.03 846 24.98 -11.4 11.5 90 -12.7 9.1
21:25 1017 30.03 847 25.01 -11.5 11.4 90 -12.8 8.9
21:30 1018 30.06 847 25.01 -11.7 10.9 91 -12.9 8.8
21:35 1018 30.06 847 25.01 -11.7 10.9 90 -13 8.6
21:40 1018 30.06 847 25.01 -11.8 10.9 92 -12.8 8.9
21:45 1018 30.06 847 25.01 -11.8 10.7 89 -13.2 8.2
21:50 1018 30.06 847 25.01 -12.5 9.6 92 -13.5 7.6
21:55 1019 30.09 848 25.04 -12.6 9.3 91 -13.8 7.1
22:00 1019 30.09 848 25.04 -12.8 8.9 91 -14 6.8
22:05 1019 30.09 848 25.04 -13.1 8.5 90 -14.4 6.1
22:10 1019 30.09 848 25.04 -13.3 8.1 89 -14.7 5.5
22:15 1019 30.09 848 25.04 -13.5 7.7 89 -15 5.1
22:20 1019 30.09 848 25.04 -13.7 7.4 90 -15 5
22:25 1019 30.09 848 25.04 -13.9 7.1 90 -15.2 4.7
22:30 1019 30.09 848 25.04 -13.8 7.1 90 -15.1 4.8
22:35 1019 30.09 849 25.07 -13.9 6.9 89 -15.3 4.4
22:40 1019 30.09 849 25.07 -14.1 6.7 90 -15.4 4.3
22:45 1019 30.09 849 25.07 -14.1 6.7 88 -15.6 3.9
22:50 1020 30.12 849 25.07 -14.3 6.2 89 -15.8 3.6
22:55 1020 30.12 849 25.07 -14.4 6.1 89 -15.8 3.6
23:00 1020 30.12 849 25.07 -14.4 6 89 -15.9 3.3
23:05 1020 30.12 849 25.07 -14.6 5.7 88 -16.2 2.9
23:10 1020 30.12 849 25.07 -14.7 5.5 88 -16.2 2.8
23:15 1020 30.12 849 25.07 -14.8 5.3 88 -16.4 2.4
23:20 1020 30.12 849 25.07 -14.8 5.3 88 -16.4 2.5
23:25 1020 30.12 849 25.07 -14.7 5.5 88 -16.3 2.6
23:30 1020 30.12 849 25.07 -14.8 5.4 88 -16.4 2.4
23:35 1020 30.12 850 25.1 -14.8 5.3 88 -16.4 2.5
23:40 1020 30.12 850 25.1 -14.8 5.4 86 -16.6 2.2
23:45 1020 30.12 850 25.1 -14.9 5.3 88 -16.5 2.4
23:50 1020 30.12 850 25.1 -14.8 5.4 86 -16.6 2.1
23:55 1020 30.12 850 25.1 -14.8 5.4 86 -16.7 2
24:00 1021 30.15 850 25.1 -14.9 5.2 85 -16.9 1.6